Time;durP1;ratioP1;P1;durP2;ratioP2;P2;SDS_P1;SDS_P2;PMS_P1;PMS_P2;Temp;Humidity;BMP_temperature;BMP_pressure;BME280_temperature;BME280_humidity;BME280_pressure;Samples;Min_cycle;Max_cycle;Signal;HPM_P1;HPM_P2
2023/02/28 00:01:30;;;;;;;;;;;;;;;5.29;100.00;93863.44;5029554;28;19913;-56
2023/02/28 00:03:56;;;;;;;;;;;;;;;5.32;100.00;93869.91;5029526;28;20385;-54
2023/02/28 00:06:21;;;;;;;;;;;;;;;5.39;99.27;93881.06;5029796;28;20316;-55
2023/02/28 00:08:46;;;;;;;;;;;;;;;5.31;99.74;93874.63;5029401;28;20440;-56
2023/02/28 00:11:12;;;;;;;;;;;;;;;5.33;98.99;93882.31;5029231;28;19925;-55
2023/02/28 00:13:39;;;;;;;;;;;;;;;5.20;99.46;93873.91;5029002;28;19923;-56
2023/02/28 00:16:05;;;;;;;;;;;;;;;5.15;100.00;93872.72;5029468;28;20005;-55
2023/02/28 00:18:31;;;;;;;;;;;;;;;5.28;100.00;93877.63;5028889;28;19923;-55
2023/02/28 00:20:56;;;;;;;;;;;;;;;5.20;100.00;93873.91;5029128;28;19917;-56
2023/02/28 00:23:22;;;;;;;;;;;;;;;5.02;100.00;93869.03;5028797;28;20398;-54
2023/02/28 00:25:47;;;;;;;;;;;;;;;5.06;100.00;93873.00;5028971;28;19917;-56
2023/02/28 00:28:12;;;;;;;;;;;;;;;5.16;100.00;93863.25;5010861;28;20024;-56
2023/02/28 00:30:39;;;;;;;;;;;;;;;5.03;100.00;93862.28;5009102;28;19925;-56
2023/02/28 00:33:04;;;;;;;;;;;;;;;5.11;100.00;93855.06;5008625;28;19924;-54
2023/02/28 00:35:30;;;;;;;;;;;;;;;5.20;100.00;93854.75;5009010;28;20409;-56
2023/02/28 00:37:55;;;;;;;;;;;;;;;5.23;100.00;93859.22;5009229;28;20312;-55
2023/02/28 00:40:20;;;;;;;;;;;;;;;5.16;100.00;93867.97;5009046;28;19925;-55
2023/02/28 00:42:46;;;;;;;;;;;;;;;5.36;100.00;93867.63;5008762;28;19963;-56
2023/02/28 00:45:11;;;;;;;;;;;;;;;5.41;100.00;93871.59;5009152;28;19917;-55
2023/02/28 00:47:36;;;;;;;;;;;;;;;5.48;100.00;93871.78;5009316;28;20310;-56
2023/02/28 00:50:02;;;;;;;;;;;;;;;5.41;99.91;93869.63;5024543;28;19960;-55
2023/02/28 00:52:27;;;;;;;;;;;;;;;5.46;99.38;93868.81;5028530;28;19963;-55
2023/02/28 00:54:52;;;;;;;;;;;;;;;5.09;100.00;93855.53;5019681;28;19917;-56
2023/02/28 00:57:18;;;;;;;;;;;;;;;5.27;100.00;93859.72;5009062;28;19975;-55
2023/02/28 00:59:43;;;;;;;;;;;;;;;5.07;100.00;93860.78;5009310;28;20447;-56
2023/02/28 01:02:08;;;;;;;;;;;;;;;4.95;100.00;93864.81;5008381;28;20464;-56
2023/02/28 01:04:33;;;;;;;;;;;;;;;4.97;100.00;93858.81;5008640;28;19921;-55
2023/02/28 01:06:59;;;;;;;;;;;;;;;5.02;100.00;93858.06;5008502;28;20396;-56
2023/02/28 01:09:24;;;;;;;;;;;;;;;4.92;100.00;93849.38;5008885;28;19969;-55
2023/02/28 01:11:49;;;;;;;;;;;;;;;4.91;100.00;93842.44;5008678;28;19924;-54
2023/02/28 01:14:15;;;;;;;;;;;;;;;5.08;100.00;93837.66;5008447;28;19918;-55
2023/02/28 01:16:41;;;;;;;;;;;;;;;5.02;100.00;93841.66;5007921;28;19918;-57
2023/02/28 01:19:06;;;;;;;;;;;;;;;5.04;100.00;93841.91;5008378;28;19917;-55
2023/02/28 01:21:31;;;;;;;;;;;;;;;5.04;100.00;93848.13;5008772;28;19917;-56
2023/02/28 01:23:57;;;;;;;;;;;;;;;5.15;100.00;93850.81;5008087;28;20460;-56
2023/02/28 01:26:23;;;;;;;;;;;;;;;5.24;100.00;93849.78;5007746;28;19923;-56
2023/02/28 01:28:48;;;;;;;;;;;;;;;5.18;100.00;93849.03;5008157;28;20011;-56
2023/02/28 01:31:14;;;;;;;;;;;;;;;5.14;100.00;93848.56;5012891;28;19921;-56
2023/02/28 01:33:39;;;;;;;;;;;;;;;5.26;100.00;93852.75;5017462;28;20372;-56
2023/02/28 01:36:06;;;;;;;;;;;;;;;5.09;99.59;93844.59;5007718;28;19926;-55
2023/02/28 01:38:31;;;;;;;;;;;;;;;4.99;100.00;93848.13;5007952;28;20544;-56
2023/02/28 01:40:56;;;;;;;;;;;;;;;4.87;100.00;93846.69;5008162;28;20028;-56
2023/02/28 01:43:21;;;;;;;;;;;;;;;4.60;100.00;93840.03;5008155;28;20008;-56
2023/02/28 01:45:47;;;;;;;;;;;;;;;4.58;100.00;93845.25;5007758;28;20364;-55
2023/02/28 01:48:12;;;;;;;;;;;;;;;4.57;100.00;93847.22;5009051;28;19921;-56
2023/02/28 01:50:39;;;;;;;;;;;;;;;4.36;100.00;93846.03;5027749;28;19974;-56
2023/02/28 01:53:04;;;;;;;;;;;;;;;4.23;100.00;93853.25;5015640;28;19913;-54
2023/02/28 01:55:30;;;;;;;;;;;;;;;4.49;100.00;93845.50;5009723;28;19917;-55
2023/02/28 01:57:56;;;;;;;;;;;;;;;4.55;100.00;93849.72;5008091;28;19971;-55
2023/02/28 02:00:22;;;;;;;;;;;;;;;4.42;100.00;93838.56;5007141;28;19917;-56
2023/02/28 02:02:49;;;;;;;;;;;;;;;4.37;100.00;93854.97;5009010;28;19917;-56
2023/02/28 02:05:16;;;;;;;;;;;;;;;4.21;100.00;93853.00;5008477;28;19914;-55
2023/02/28 02:07:42;;;;;;;;;;;;;;;4.04;100.00;93855.75;5011543;28;19914;-56
2023/02/28 02:10:12;;;;;;;;;;;;;;;4.12;100.00;93854.00;5011204;28;19921;-56
2023/02/28 02:12:40;;;;;;;;;;;;;;;4.04;100.00;93852.25;5012134;28;19917;-56
2023/02/28 02:15:05;;;;;;;;;;;;;;;4.02;100.00;93860.97;5012459;28;20004;-54
2023/02/28 02:17:30;;;;;;;;;;;;;;;4.07;100.00;93856.75;5012261;28;20509;-55
2023/02/28 02:19:55;;;;;;;;;;;;;;;4.08;100.00;93858.97;5012089;28;19917;-54
2023/02/28 02:22:21;;;;;;;;;;;;;;;4.17;100.00;93858.72;5012025;28;19913;-55
2023/02/28 02:24:49;;;;;;;;;;;;;;;4.24;100.00;93855.50;5011974;28;19913;-55
2023/02/28 02:27:14;;;;;;;;;;;;;;;4.34;100.00;93862.19;5022220;28;19926;-55
2023/02/28 02:29:55;;;;;;;;;;;;;;;4.30;100.00;93861.69;5031758;28;19921;-55
2023/02/28 02:32:26;;;;;;;;;;;;;;;4.28;100.00;93866.16;5031490;28;20015;-55
2023/02/28 02:34:54;;;;;;;;;;;;;;;4.22;100.00;93868.88;5031533;28;19928;-56
2023/02/28 02:37:20;;;;;;;;;;;;;;;4.05;100.00;93873.59;5030445;28;20316;-56
2023/02/28 02:39:45;;;;;;;;;;;;;;;4.17;100.00;93869.66;5031531;28;19916;-55
2023/02/28 02:42:22;;;;;;;;;;;;;;;4.00;100.00;93871.63;5031604;28;19921;-55
2023/02/28 02:44:53;;;;;;;;;;;;;;;4.24;100.00;93868.41;5030576;28;20011;-55
2023/02/28 02:47:19;;;;;;;;;;;;;;;4.34;99.46;93873.13;5031495;28;19940;-54
2023/02/28 02:49:51;;;;;;;;;;;;;;;4.42;98.74;93871.38;5026850;28;20393;-55
2023/02/28 02:52:17;;;;;;;;;;;;;;;4.39;99.16;93880.59;5011628;28;19917;-56
2023/02/28 02:54:43;;;;;;;;;;;;;;;4.29;100.00;93884.78;5010510;28;19922;-56
2023/02/28 02:57:29;;;;;;;;;;;;;;;4.43;100.00;93891.25;5011312;28;19917;-56
2023/02/28 02:59:55;;;;;;;;;;;;;;;4.21;100.00;93891.25;5011143;28;20004;-56
2023/02/28 03:02:20;;;;;;;;;;;;;;;4.37;100.00;93894.00;5009592;28;20055;-55
2023/02/28 03:04:46;;;;;;;;;;;;;;;4.33;99.10;93890.75;5009829;28;19975;-55
2023/02/28 03:07:11;;;;;;;;;;;;;;;4.37;98.85;93894.00;5009546;28;19913;-56
2023/02/28 03:09:36;;;;;;;;;;;;;;;4.44;97.75;93896.22;5010387;28;19922;-56
2023/02/28 03:12:02;;;;;;;;;;;;;;;4.21;98.12;93905.66;5010712;28;19918;-56
2023/02/28 03:14:46;;;;;;;;;;;;;;;4.10;99.83;93905.66;5010752;28;20674;-56
2023/02/28 03:17:18;;;;;;;;;;;;;;;4.18;99.16;93903.19;5010701;28;19940;-55
2023/02/28 03:19:59;;;;;;;;;;;;;;;4.12;99.17;93910.63;5008679;28;20430;-56
2023/02/28 03:22:27;;;;;;;;;;;;;;;3.79;100.00;93914.06;5008990;28;20367;-56
2023/02/28 03:24:58;;;;;;;;;;;;;;;4.05;100.00;93916.59;5010581;28;19917;-56
2023/02/28 03:27:26;;;;;;;;;;;;;;;4.04;100.00;93921.31;5022449;28;19921;-54
2023/02/28 03:30:01;;;;;;;;;;;;;;;3.98;100.00;93912.38;5030213;28;19925;-55
2023/02/28 03:32:29;;;;;;;;;;;;;;;3.93;100.00;93918.56;5013747;28;19917;-55
2023/02/28 03:35:13;;;;;;;;;;;;;;;3.73;100.00;93924.22;5009928;28;19960;-54
2023/02/28 03:37:39;;;;;;;;;;;;;;;3.88;100.00;93919.28;5010605;28;19929;-55
2023/02/28 03:40:08;;;;;;;;;;;;;;;3.94;100.00;93922.03;4992589;28;19968;-56
2023/02/28 03:42:34;;;;;;;;;;;;;;;3.86;100.00;93929.97;4992686;28;20460;-54
2023/02/28 03:45:00;;;;;;;;;;;;;;;3.92;100.00;93924.53;4992203;28;20004;-56
2023/02/28 03:47:31;;;;;;;;;;;;;;;3.94;100.00;93930.25;4992935;28;19913;-56
2023/02/28 03:50:01;;;;;;;;;;;;;;;3.95;100.00;93932.47;4988867;28;19980;-55
2023/02/28 03:52:31;;;;;;;;;;;;;;;3.70;100.00;93927.97;4987540;28;20404;-55
2023/02/28 03:55:00;;;;;;;;;;;;;;;3.77;100.00;93925.47;4988692;28;19914;-56
2023/02/28 03:57:44;;;;;;;;;;;;;;;3.88;100.00;93929.50;4990617;28;19913;-56
2023/02/28 04:00:14;;;;;;;;;;;;;;;3.68;100.00;93931.16;4990458;28;19918;-56
2023/02/28 04:02:39;;;;;;;;;;;;;;;3.72;100.00;93928.97;4972755;28;19920;-56
2023/02/28 04:05:05;;;;;;;;;;;;;;;3.71;100.00;93932.16;4972268;28;20382;-55
2023/02/28 04:07:30;;;;;;;;;;;;;;;3.79;100.00;93944.09;4972767;28;19918;-54
2023/02/28 04:09:56;;;;;;;;;;;;;;;3.94;100.00;93941.16;4990546;28;19922;-55
2023/02/28 04:12:22;;;;;;;;;;;;;;;3.79;100.00;93938.63;4989606;28;19972;-55
2023/02/28 04:14:48;;;;;;;;;;;;;;;3.80;100.00;93931.94;4989986;28;20004;-55
2023/02/28 04:17:13;;;;;;;;;;;;;;;4.03;100.00;93932.75;4972451;28;20036;-56
2023/02/28 04:19:38;;;;;;;;;;;;;;;4.08;100.00;93930.00;4990262;28;19921;-55
2023/02/28 04:22:04;;;;;;;;;;;;;;;4.12;100.00;93935.97;4989980;28;19918;-55
2023/02/28 04:24:29;;;;;;;;;;;;;;;4.27;100.00;93933.75;4989647;28;19918;-56
2023/02/28 04:26:55;;;;;;;;;;;;;;;4.32;100.00;93941.22;4989870;28;19918;-55
2023/02/28 04:29:25;;;;;;;;;;;;;;;4.37;100.00;93945.94;4990117;28;19922;-56
2023/02/28 04:31:51;;;;;;;;;;;;;;;4.34;100.00;93948.91;4999095;28;19914;-55
2023/02/28 04:34:16;;;;;;;;;;;;;;;4.41;100.00;93945.69;4995527;28;20353;-56
2023/02/28 04:36:42;;;;;;;;;;;;;;;4.32;100.00;93940.47;5009228;28;19917;-55
2023/02/28 04:39:07;;;;;;;;;;;;;;;4.19;100.00;93946.41;5009272;28;20630;-56
2023/02/28 04:41:32;;;;;;;;;;;;;;;4.36;100.00;93938.97;5009275;28;20397;-55
2023/02/28 04:43:57;;;;;;;;;;;;;;;4.33;100.00;93953.63;5009153;28;19917;-55
2023/02/28 04:46:23;;;;;;;;;;;;;;;4.32;100.00;93941.22;5008335;28;20564;-57
2023/02/28 04:48:48;;;;;;;;;;;;;;;4.59;100.00;93945.19;5014583;28;19996;-55
2023/02/28 04:51:14;;;;;;;;;;;;;;;4.53;100.00;93944.44;5028924;28;19920;-56
2023/02/28 04:53:40;;;;;;;;;;;;;;;4.40;100.00;93947.66;5011539;28;20381;-56
2023/02/28 04:56:05;;;;;;;;;;;;;;;4.42;100.00;93947.91;5008475;28;19918;-56
2023/02/28 04:58:31;;;;;;;;;;;;;;;4.28;100.00;93940.72;5008300;28;19913;-55
2023/02/28 05:01:15;;;;;;;;;;;;;;;4.39;100.00;93948.94;5008713;28;19917;-55
2023/02/28 05:03:40;;;;;;;;;;;;;;;4.37;100.00;93948.69;5008504;28;19924;-56
2023/02/28 05:06:06;;;;;;;;;;;;;;;4.32;100.00;93949.41;5008558;28;20301;-55
2023/02/28 05:08:31;;;;;;;;;;;;;;;4.36;100.00;93949.91;5008611;28;19917;-55
2023/02/28 05:10:56;;;;;;;;;;;;;;;4.44;100.00;93939.97;5008564;28;19927;-55
2023/02/28 05:13:22;;;;;;;;;;;;;;;4.50;100.00;93948.91;5008298;28;20312;-55
2023/02/28 05:15:48;;;;;;;;;;;;;;;4.49;100.00;93955.63;5008678;28;20004;-56
2023/02/28 05:18:13;;;;;;;;;;;;;;;4.70;100.00;93958.84;5008445;28;20124;-55
2023/02/28 05:20:38;;;;;;;;;;;;;;;4.83;100.00;93961.81;5008321;28;19925;-56
2023/02/28 05:23:03;;;;;;;;;;;;;;;4.91;100.00;93964.81;5007603;28;20335;-55
2023/02/28 05:25:29;;;;;;;;;;;;;;;4.83;100.00;93972.75;5008164;28;20385;-56
2023/02/28 05:27:54;;;;;;;;;;;;;;;4.93;100.00;93974.00;5024144;28;19913;-56
2023/02/28 05:30:19;;;;;;;;;;;;;;;5.12;100.00;93972.22;5028122;28;19927;-56
2023/02/28 05:32:48;;;;;;;;;;;;;;;5.18;99.11;93977.69;5024671;28;19918;-57
2023/02/28 05:35:14;;;;;;;;;;;;;;;4.87;100.00;93986.97;5006680;28;19933;-55
2023/02/28 05:37:39;;;;;;;;;;;;;;;5.02;100.00;93987.44;5008600;28;19917;-56
2023/02/28 05:40:11;;;;;;;;;;;;;;;4.92;100.00;93990.91;5007860;28;19913;-57
2023/02/28 05:42:37;;;;;;;;;;;;;;;4.81;100.00;93993.69;5011305;28;20553;-55
2023/02/28 05:45:03;;;;;;;;;;;;;;;4.83;100.00;93999.38;5012064;28;19929;-54
2023/02/28 05:47:28;;;;;;;;;;;;;;;4.89;100.00;93991.91;5017219;28;19917;-56
2023/02/28 05:49:53;;;;;;;;;;;;;;;5.03;100.00;93996.38;5016848;28;20371;-56
2023/02/28 05:52:18;;;;;;;;;;;;;;;5.11;100.00;93997.38;5012010;28;19952;-57
2023/02/28 05:54:44;;;;;;;;;;;;;;;5.20;100.00;94000.56;5018305;28;20356;-56
2023/02/28 05:57:09;;;;;;;;;;;;;;;5.23;100.00;93993.38;5031853;28;19933;-56
2023/02/28 05:59:34;;;;;;;;;;;;;;;5.18;100.00;93994.09;5031520;28;19944;-56
2023/02/28 06:01:59;;;;;;;;;;;;;;;5.20;100.00;93989.63;5031585;28;20567;-56
2023/02/28 06:04:25;;;;;;;;;;;;;;;5.30;100.00;93992.84;5031547;28;19913;-56
2023/02/28 06:06:50;;;;;;;;;;;;;;;5.39;100.00;93992.59;5031350;28;19921;-56
2023/02/28 06:09:16;;;;;;;;;;;;;;;5.38;100.00;94002.03;5031271;28;20468;-56
2023/02/28 06:11:41;;;;;;;;;;;;;;;5.28;100.00;94001.56;5031317;28;19917;-56
2023/02/28 06:14:07;;;;;;;;;;;;;;;5.43;100.00;94001.28;5031596;28;19974;-57
2023/02/28 06:16:33;;;;;;;;;;;;;;;5.47;100.00;93998.28;5030902;28;20401;-56
2023/02/28 06:18:59;;;;;;;;;;;;;;;5.44;100.00;94005.50;5031358;28;19913;-57
2023/02/28 06:21:24;;;;;;;;;;;;;;;5.63;99.29;94009.19;5031603;28;19923;-56
2023/02/28 06:23:50;;;;;;;;;;;;;;;5.56;100.00;94008.97;5030834;28;19932;-55
2023/02/28 06:26:15;;;;;;;;;;;;;;;5.63;100.00;94009.19;5028285;28;19920;-55
2023/02/28 06:28:40;;;;;;;;;;;;;;;5.50;100.00;94006.22;5011316;28;19917;-56
2023/02/28 06:31:09;;;;;;;;;;;;;;;5.65;100.00;94006.69;5013907;28;19918;-57
2023/02/28 06:33:35;;;;;;;;;;;;;;;5.58;100.00;94015.44;5020973;28;19917;-55
2023/02/28 06:36:01;;;;;;;;;;;;;;;5.55;100.00;94010.94;5011095;28;19925;-56
2023/02/28 06:38:26;;;;;;;;;;;;;;;5.46;100.00;94011.22;5010952;28;19925;-56
2023/02/28 06:40:55;;;;;;;;;;;;;;;5.64;100.00;94010.69;5010976;28;19914;-56
2023/02/28 06:43:20;;;;;;;;;;;;;;;5.51;100.00;94015.19;5013302;28;19990;-56
2023/02/28 06:45:45;;;;;;;;;;;;;;;5.62;100.00;94023.38;5030814;28;20452;-56
2023/02/28 06:48:11;;;;;;;;;;;;;;;5.75;100.00;94020.84;5030177;28;19996;-55
2023/02/28 06:50:36;;;;;;;;;;;;;;;5.85;100.00;94027.56;5010452;28;19928;-56
2023/02/28 06:53:02;;;;;;;;;;;;;;;5.97;100.00;94029.03;5009397;28;19913;-56
2023/02/28 06:55:27;;;;;;;;;;;;;;;6.20;100.00;94032.38;5023482;28;20003;-57
2023/02/28 06:57:54;;;;;;;;;;;;;;;6.30;100.00;94031.63;5030360;28;19968;-56
2023/02/28 07:00:20;;;;;;;;;;;;;;;6.22;100.00;94024.41;5030659;28;19994;-56
2023/02/28 07:02:45;;;;;;;;;;;;;;;6.38;100.00;94035.31;5030581;28;20432;-56
2023/02/28 07:05:10;;;;;;;;;;;;;;;6.37;100.00;94022.81;5029017;28;19917;-57
2023/02/28 07:07:38;;;;;;;;;;;;;;;6.48;100.00;94028.25;5030702;28;19913;-57
2023/02/28 07:10:03;;;;;;;;;;;;;;;6.61;100.00;94033.91;5030664;28;20624;-55
2023/02/28 07:12:28;;;;;;;;;;;;;;;6.79;100.00;94027.06;5030182;28;19913;-57
2023/02/28 07:14:55;;;;;;;;;;;;;;;6.94;100.00;94019.19;5030378;28;20363;-56
2023/02/28 07:17:20;;;;;;;;;;;;;;;6.85;100.00;94017.53;5030594;28;19932;-56
2023/02/28 07:19:46;;;;;;;;;;;;;;;7.07;100.00;94013.84;5030123;28;20315;-57
2023/02/28 07:22:11;;;;;;;;;;;;;;;7.23;100.00;94012.22;5030179;28;19921;-57
2023/02/28 07:24:38;;;;;;;;;;;;;;;7.32;100.00;94020.13;5030276;28;19924;-57
2023/02/28 07:27:03;;;;;;;;;;;;;;;7.46;100.00;94016.22;5021209;28;19975;-57
2023/02/28 07:29:28;;;;;;;;;;;;;;;7.45;100.00;94018.22;5010407;28;20386;-56
2023/02/28 07:31:53;;;;;;;;;;;;;;;7.44;100.00;94019.50;5019745;28;19983;-56
2023/02/28 07:34:19;;;;;;;;;;;;;;;7.50;100.00;94022.94;5013425;28;19917;-56
2023/02/28 07:36:45;;;;;;;;;;;;;;;7.52;100.00;94019.66;5010254;28;19913;-56
2023/02/28 07:39:12;;;;;;;;;;;;;;;7.29;100.00;94013.66;5009208;28;20476;-56
2023/02/28 07:41:43;;;;;;;;;;;;;;;7.56;100.00;94031.84;5028811;28;19917;-56
2023/02/28 07:44:08;;;;;;;;;;;;;;;7.89;100.00;94035.50;5029782;28;19917;-56
2023/02/28 07:46:35;;;;;;;;;;;;;;;7.72;100.00;94030.19;5029565;28;20014;-55
2023/02/28 07:49:02;;;;;;;;;;;;;;;7.60;100.00;94037.81;5022258;28;20604;-56
2023/02/28 07:51:28;;;;;;;;;;;;;;;7.72;100.00;94035.69;5009517;28;19961;-56
2023/02/28 07:53:53;;;;;;;;;;;;;;;7.82;100.00;94030.63;5009451;28;19964;-56
2023/02/28 07:56:18;;;;;;;;;;;;;;;7.82;100.00;94030.63;5029261;28;20005;-56
2023/02/28 07:58:43;;;;;;;;;;;;;;;7.62;100.00;94034.56;5029026;28;19913;-56
2023/02/28 08:01:10;;;;;;;;;;;;;;;7.69;100.00;94036.00;5029340;28;19928;-55
2023/02/28 08:03:35;;;;;;;;;;;;;;;7.63;100.00;94038.78;5029314;28;19917;-56
2023/02/28 08:06:02;;;;;;;;;;;;;;;7.66;100.00;94040.53;5028721;28;19927;-56
2023/02/28 08:08:31;;;;;;;;;;;;;;;7.81;100.00;94031.84;5028972;28;19967;-56
2023/02/28 08:10:58;;;;;;;;;;;;;;;7.99;100.00;94039.41;5029453;28;19920;-56
2023/02/28 08:13:23;;;;;;;;;;;;;;;7.95;100.00;94031.44;5029073;28;19924;-56
2023/02/28 08:15:49;;;;;;;;;;;;;;;7.61;100.00;94036.56;5029131;28;20308;-54
2023/02/28 08:18:14;;;;;;;;;;;;;;;7.39;100.00;94033.28;5029184;28;20403;-56
2023/02/28 08:20:39;;;;;;;;;;;;;;;7.54;100.00;94028.13;5028748;28;20428;-56
2023/02/28 08:23:05;;;;;;;;;;;;;;;7.65;100.00;94034.28;5028910;28;19960;-56
2023/02/28 08:25:30;;;;;;;;;;;;;;;7.77;100.00;94034.91;5029294;28;19913;-56
2023/02/28 08:27:55;;;;;;;;;;;;;;;7.73;100.00;94037.19;5012194;28;20332;-56
2023/02/28 08:30:20;;;;;;;;;;;;;;;7.55;100.00;94035.88;5008786;28;19980;-56
2023/02/28 08:32:46;;;;;;;;;;;;;;;7.62;100.00;94034.56;5022616;28;20408;-56
2023/02/28 08:35:11;;;;;;;;;;;;;;;7.64;100.00;94048.53;5008568;28;19928;-56
2023/02/28 08:37:36;;;;;;;;;;;;;;;7.67;100.00;94033.75;5025268;28;20480;-56
2023/02/28 08:40:03;;;;;;;;;;;;;;;7.81;100.00;94040.84;5029046;28;19917;-55
2023/02/28 08:42:29;;;;;;;;;;;;;;;7.69;100.00;94044.97;5028451;28;20009;-56
2023/02/28 08:44:54;;;;;;;;;;;;;;;7.72;100.00;94040.44;5028533;28;20019;-56
2023/02/28 08:47:19;;;;;;;;;;;;;;;7.76;100.00;94044.41;5028383;28;19917;-55
2023/02/28 08:49:45;;;;;;;;;;;;;;;7.82;100.00;94042.31;5014450;28;19917;-56
2023/02/28 08:52:10;;;;;;;;;;;;;;;7.65;100.00;94048.00;5008884;28;19914;-56
2023/02/28 08:54:35;;;;;;;;;;;;;;;7.94;100.00;94043.72;5014333;28;20650;-56
2023/02/28 08:57:01;;;;;;;;;;;;;;;8.12;100.00;94045.72;5028080;28;19975;-56
2023/02/28 08:59:26;;;;;;;;;;;;;;;7.88;100.00;94045.03;5028498;28;19927;-56
2023/02/28 09:01:51;;;;;;;;;;;;;;;8.00;100.00;94044.38;5028644;28;19921;-56
2023/02/28 09:04:16;;;;;;;;;;;;;;;7.71;100.00;94042.44;5027887;28;20374;-56
2023/02/28 09:06:42;;;;;;;;;;;;;;;8.06;98.42;94047.06;5028545;28;20073;-56
2023/02/28 09:09:09;;;;;;;;;;;;;;;7.78;100.00;94043.88;5028290;28;20373;-56
2023/02/28 09:11:34;;;;;;;;;;;;;;;7.77;100.00;94039.66;5028241;28;20347;-55
2023/02/28 09:14:00;;;;;;;;;;;;;;;7.57;100.00;94046.34;5028460;28;19923;-55
2023/02/28 09:16:25;;;;;;;;;;;;;;;7.53;100.00;94043.16;5027389;28;19921;-56
2023/02/28 09:18:51;;;;;;;;;;;;;;;7.67;100.00;94038.53;5028037;28;19979;-56
2023/02/28 09:21:17;;;;;;;;;;;;;;;7.83;100.00;94041.09;5028229;28;19913;-56
2023/02/28 09:23:42;;;;;;;;;;;;;;;8.09;100.00;94038.53;5028285;28;19955;-56
2023/02/28 09:26:11;;;;;;;;;;;;;;;7.86;100.00;94036.56;5026388;28;19917;-56
2023/02/28 09:28:37;;;;;;;;;;;;;;;8.18;100.00;94029.94;5007258;28;20028;-56
2023/02/28 09:31:04;;;;;;;;;;;;;;;8.15;99.57;94035.69;5010653;28;20107;-56
2023/02/28 09:33:30;;;;;;;;;;;;;;;8.31;99.47;94029.28;5013939;28;20429;-56
2023/02/28 09:36:00;;;;;;;;;;;;;;;8.44;96.94;94023.88;5008420;28;19933;-56
2023/02/28 09:38:25;;;;;;;;;;;;;;;8.50;97.00;94023.78;5008039;28;19917;-55
2023/02/28 09:40:55;;;;;;;;;;;;;;;8.67;96.09;94022.28;5008115;28;19920;-56
2023/02/28 09:43:21;;;;;;;;;;;;;;;8.92;92.84;94018.13;5008621;28;19917;-56
2023/02/28 09:46:00;;;;;;;;;;;;;;;8.88;93.72;94025.25;5008325;28;20345;-55
2023/02/28 09:48:28;;;;;;;;;;;;;;;8.90;92.68;94026.19;5011255;28;19925;-56
2023/02/28 09:50:59;;;;;;;;;;;;;;;9.23;93.58;94026.91;5026640;28;19921;-56
2023/02/28 09:53:33;;;;;;;;;;;;;;;9.83;89.81;94020.31;5022955;28;19917;-56
2023/02/28 09:55:59;;;;;;;;;;;;;;;9.59;90.36;94008.78;5008013;28;20028;-56
2023/02/28 09:58:33;;;;;;;;;;;;;;;9.64;87.19;94019.69;5007660;28;20009;-56
2023/02/28 10:01:17;;;;;;;;;;;;;;;9.16;89.83;94026.28;5007718;28;19924;-56
2023/02/28 10:03:43;;;;;;;;;;;;;;;9.05;92.24;94018.19;5008122;28;20324;-56
2023/02/28 10:06:17;;;;;;;;;;;;;;;9.14;90.32;94015.03;5006475;28;19920;-56
2023/02/28 10:09:02;;;;;;;;;;;;;;;9.03;91.84;94012.47;5006441;28;20419;-56
2023/02/28 10:11:27;;;;;;;;;;;;;;;9.27;91.11;94003.28;5006383;28;19921;-56
2023/02/28 10:13:55;;;;;;;;;;;;;;;9.34;90.55;93999.19;5007392;28;19924;-55
2023/02/28 10:16:25;;;;;;;;;;;;;;;9.43;90.42;93994.00;5008252;28;19923;-56
2023/02/28 10:18:52;;;;;;;;;;;;;;;9.59;90.72;93995.00;5006519;28;19944;-56
2023/02/28 10:21:21;;;;;;;;;;;;;;;9.83;88.37;93992.03;5006216;28;19940;-56
2023/02/28 10:23:47;;;;;;;;;;;;;;;10.02;86.86;93991.91;5007011;28;20439;-56
2023/02/28 10:26:13;;;;;;;;;;;;;;;9.81;85.92;93994.56;5007441;28;19924;-56
2023/02/28 10:28:38;;;;;;;;;;;;;;;9.93;86.64;93995.84;5010225;28;19966;-57
2023/02/28 10:31:04;;;;;;;;;;;;;;;9.88;87.90;93989.16;5014181;28;20022;-56
2023/02/28 10:33:34;;;;;;;;;;;;;;;10.15;87.14;93989.16;5026171;28;19921;-56
2023/02/28 10:35:59;;;;;;;;;;;;;;;10.21;86.88;93984.25;5010892;28;19925;-56
2023/02/28 10:38:29;;;;;;;;;;;;;;;10.38;86.94;93985.41;5011537;28;19917;-57
2023/02/28 10:41:05;;;;;;;;;;;;;;;10.29;86.39;93987.84;5010927;28;19924;-56
2023/02/28 10:43:30;;;;;;;;;;;;;;;10.31;86.01;93982.56;5010785;28;19917;-56
2023/02/28 10:46:00;;;;;;;;;;;;;;;10.17;84.87;93979.06;5010005;28;19924;-56
2023/02/28 10:48:25;;;;;;;;;;;;;;;10.21;84.48;93976.72;5009472;28;19918;-56
2023/02/28 10:50:51;;;;;;;;;;;;;;;9.92;86.83;93981.28;5010787;28;19925;-56
2023/02/28 10:53:20;;;;;;;;;;;;;;;9.75;87.53;93974.63;5010266;28;19913;-56
2023/02/28 10:55:45;;;;;;;;;;;;;;;10.20;85.73;93975.22;5025668;28;19917;-57
2023/02/28 10:58:30;;;;;;;;;;;;;;;10.45;82.71;93968.19;5029314;28;19917;-56
2023/02/28 11:00:56;;;;;;;;;;;;;;;9.87;85.64;93971.09;5030408;28;19913;-56
2023/02/28 11:03:29;;;;;;;;;;;;;;;9.57;87.21;93969.97;5029247;28;19913;-56
2023/02/28 11:05:55;;;;;;;;;;;;;;;9.52;88.25;93959.78;5030636;28;19913;-56
2023/02/28 11:08:20;;;;;;;;;;;;;;;9.73;87.17;93960.63;5029519;28;19924;-55
2023/02/28 11:10:46;;;;;;;;;;;;;;;9.79;86.66;93955.72;5030567;28;20293;-56
2023/02/28 11:13:19;;;;;;;;;;;;;;;9.74;87.42;93962.13;5030419;28;19913;-56
2023/02/28 11:15:49;;;;;;;;;;;;;;;9.47;87.86;93966.13;5030691;28;19913;-57
2023/02/28 11:18:23;;;;;;;;;;;;;;;9.85;86.55;93964.66;5028795;28;19913;-56
2023/02/28 11:20:49;;;;;;;;;;;;;;;9.49;87.79;93963.56;5030494;28;19916;-56
2023/02/28 11:23:15;;;;;;;;;;;;;;;9.54;86.41;93960.00;5030668;28;20396;-56
2023/02/28 11:25:40;;;;;;;;;;;;;;;9.55;85.33;93962.22;5025452;28;20369;-57
2023/02/28 11:28:08;;;;;;;;;;;;;;;9.42;86.16;93947.69;5008981;28;19924;-56
2023/02/28 11:30:35;;;;;;;;;;;;;;;9.40;85.68;93950.97;5009121;28;20310;-57
2023/02/28 11:33:01;;;;;;;;;;;;;;;9.33;85.88;93946.09;5023454;28;19952;-56
2023/02/28 11:35:36;;;;;;;;;;;;;;;9.31;86.48;93948.66;5010152;28;19975;-56
2023/02/28 11:38:02;;;;;;;;;;;;;;;9.18;86.52;93947.88;5010465;28;19913;-56
2023/02/28 11:40:27;;;;;;;;;;;;;;;9.00;87.55;93941.16;5009598;28;19913;-56
2023/02/28 11:43:02;;;;;;;;;;;;;;;9.01;88.47;93946.13;5010618;28;19956;-56
2023/02/28 11:45:30;;;;;;;;;;;;;;;9.25;87.32;93939.00;5009932;28;20673;-56
2023/02/28 11:48:02;;;;;;;;;;;;;;;9.18;85.41;93941.09;5010009;28;19996;-56
2023/02/28 11:50:31;;;;;;;;;;;;;;;9.22;85.95;93940.03;5028155;28;19921;-56
2023/02/28 11:52:57;;;;;;;;;;;;;;;8.96;85.82;93943.50;5018389;28;20000;-56
2023/02/28 11:55:26;;;;;;;;;;;;;;;8.94;87.17;93937.78;5017269;28;19936;-57
2023/02/28 11:57:54;;;;;;;;;;;;;;;8.94;87.37;93943.28;5008656;28;19924;-57
2023/02/28 12:00:23;;;;;;;;;;;;;;;9.07;86.23;93946.78;5009372;28;19988;-56
2023/02/28 12:03:11;;;;;;;;;;;;;;;9.03;86.59;93946.34;5009857;28;19918;-55
2023/02/28 12:06:03;;;;;;;;;;;;;;;9.08;86.64;93951.03;5008392;28;19917;-56
2023/02/28 12:08:37;;;;;;;;;;;;;;;8.97;86.08;93953.22;4986334;28;20008;-56
2023/02/28 12:11:03;;;;;;;;;;;;;;;8.83;85.11;93952.47;5009706;28;19960;-56
2023/02/28 12:13:31;;;;;;;;;;;;;;;8.59;85.81;93957.34;5009491;28;19949;-56
2023/02/28 12:16:03;;;;;;;;;;;;;;;8.65;86.19;93953.25;5009485;28;19957;-56
2023/02/28 12:18:41;;;;;;;;;;;;;;;8.52;87.60;93955.19;5008552;28;20399;-56
2023/02/28 12:21:27;;;;;;;;;;;;;;;8.25;88.00;93957.81;5008835;28;19914;-56
2023/02/28 12:23:58;;;;;;;;;;;;;;;7.95;89.54;93961.97;5008661;28;19921;-56
2023/02/28 12:26:35;;;;;;;;;;;;;;;8.17;88.46;93961.66;5008789;28;19967;-56
2023/02/28 12:29:09;;;;;;;;;;;;;;;8.02;89.36;93956.63;5009218;28;19937;-55
2023/02/28 12:31:42;;;;;;;;;;;;;;;7.85;89.38;93961.59;5011522;28;19921;-56
2023/02/28 12:34:10;;;;;;;;;;;;;;;7.88;89.91;93952.31;5021985;28;20013;-57
2023/02/28 12:36:35;;;;;;;;;;;;;;;7.73;90.37;93952.00;5028987;28;19909;-56
2023/02/28 12:39:02;;;;;;;;;;;;;;;7.77;90.54;93960.69;5028667;28;20514;-56
2023/02/28 12:42:07;;;;;;;;;;;;;;;7.67;90.68;93954.03;5027443;28;19916;-56
2023/02/28 12:44:39;;;;;;;;;;;;;;;7.52;91.53;93948.97;4947902;29;20462;-56
2023/02/28 12:47:05;;;;;;;;;;;;;;;7.61;91.92;93945.88;4931515;29;20415;-56
2023/02/28 12:49:31;;;;;;;;;;;;;;;7.49;92.68;93943.78;4968697;28;19948;-56
2023/02/28 12:51:57;;;;;;;;;;;;;;;7.46;93.80;93944.81;5008272;28;19921;-56